Time;durP1;ratioP1;P1;durP2;ratioP2;P2;SDS_P1;SDS_P2;PMS_P1;PMS_P2;Temp;Humidity;BMP_temperature;BMP_pressure;BME280_temperature;BME280_humidity;BME280_pressure;Samples;Min_cycle;Max_cycle;Signal;HPM_P1;HPM_P2
2021/12/03 00:00:52;;;;;;;;;21.25;20.00;;;;;4.66;63.57;101025.72;5075504;28;45421;-73
2021/12/03 00:03:19;;;;;;;;;26.25;18.25;;;;;4.62;64.13;101027.91;5075521;28;45445;-73
2021/12/03 00:05:45;;;;;;;;;22.75;20.50;;;;;4.62;63.72;101024.34;5075233;28;45764;-73
2021/12/03 00:08:11;;;;;;;;;24.25;20.50;;;;;4.61;63.43;101015.38;5075230;28;45583;-74
2021/12/03 00:10:38;;;;;;;;;24.00;23.00;;;;;4.60;64.72;101021.78;5070845;28;45749;-73
2021/12/03 00:13:06;;;;;;;;;22.75;20.50;;;;;4.59;63.84;101030.94;5053276;28;45956;-72
2021/12/03 00:15:34;;;;;;;;;16.00;14.25;;;;;4.57;63.63;101035.72;5054755;28;45785;-73
2021/12/03 00:17:59;;;;;;;;;24.75;23.25;;;;;4.56;63.29;101025.84;5054340;28;45512;-73
2021/12/03 00:20:26;;;;;;;;;22.75;20.50;;;;;4.59;64.43;101029.06;5053448;28;45929;-73
2021/12/03 00:22:56;;;;;;;;;24.00;22.00;;;;;4.57;63.60;101019.41;5054502;28;45674;-74
2021/12/03 00:25:22;;;;;;;;;20.75;19.00;;;;;4.62;63.18;101021.63;5054153;28;45396;-73
2021/12/03 00:27:47;;;;;;;;;25.25;21.00;;;;;4.60;63.52;101025.34;5053572;28;45522;-73
2021/12/03 00:30:15;;;;;;;;;19.25;19.25;;;;;4.59;63.90;101020.94;5052964;28;45596;-74
2021/12/03 00:32:42;;;;;;;;;23.75;19.75;;;;;4.59;64.13;101030.94;5053518;28;45423;-73
2021/12/03 00:35:09;;;;;;;;;28.50;22.75;;;;;4.59;63.83;101017.38;5053536;28;45906;-74
2021/12/03 00:37:37;;;;;;;;;28.00;22.25;;;;;4.62;63.54;101018.91;5053896;28;45401;-71
2021/12/03 00:40:04;;;;;;;;;23.75;20.00;;;;;4.64;63.76;101016.88;5020363;28;45733;-74
2021/12/03 00:42:30;;;;;;;;;22.00;21.25;;;;;4.65;63.34;101029.47;5054144;28;45367;-75
2021/12/03 00:44:56;;;;;;;;;22.75;21.75;;;;;4.66;64.26;101037.44;5054089;28;45505;-72
2021/12/03 00:47:23;;;;;;;;;19.25;13.25;;;;;4.67;64.67;101035.56;5054175;28;45547;-73
2021/12/03 00:49:49;;;;;;;;;26.25;18.25;;;;;4.65;64.83;101033.00;5054726;28;45591;-73
2021/12/03 00:52:14;;;;;;;;;20.50;20.25;;;;;4.59;64.27;101009.22;5054484;28;45464;-73
2021/12/03 00:54:41;;;;;;;;;26.50;18.00;;;;;4.73;64.33;101030.34;5060382;28;45335;-73
2021/12/03 00:57:06;;;;;;;;;24.75;23.75;;;;;4.73;63.15;101038.50;5056375;28;45748;-73
2021/12/03 00:59:32;;;;;;;;;21.25;18.75;;;;;4.78;62.95;101040.72;5074806;28;45510;-74
2021/12/03 01:01:58;;;;;;;;;23.50;20.25;;;;;4.76;63.36;101040.88;5057049;28;45784;-72
2021/12/03 01:04:23;;;;;;;;;22.75;20.00;;;;;4.80;63.91;101043.28;5054247;28;46139;-73
2021/12/03 01:06:49;;;;;;;;;21.50;20.50;;;;;4.77;63.12;101039.00;5053749;28;45330;-73
2021/12/03 01:09:14;;;;;;;;;22.25;19.50;;;;;4.81;63.21;101044.97;5056838;28;45349;-72
2021/12/03 01:11:40;;;;;;;;;18.00;18.00;;;;;4.86;62.79;101046.16;5073884;28;45755;-73
2021/12/03 01:14:07;;;;;;;;;22.75;19.00;;;;;4.92;62.58;101052.81;5073936;28;46366;-73
2021/12/03 01:16:33;;;;;;;;;19.75;16.50;;;;;4.95;63.03;101055.22;5073968;28;45647;-71
2021/12/03 01:19:00;;;;;;;;;11.25;10.50;;;;;4.98;63.09;101054.03;5275887;22;45589;-70
2021/12/03 01:21:26;;;;;;;;;22.75;21.75;;;;;5.00;62.53;101061.03;5094588;27;45706;-71
2021/12/03 01:23:53;;;;;;;;;23.25;21.00;;;;;5.02;63.05;101058.97;5094361;27;46514;-71
2021/12/03 01:26:19;;;;;;;;;23.00;18.50;;;;;5.05;62.31;101057.81;5094077;27;45335;-70
2021/12/03 01:28:45;;;;;;;;;22.00;22.00;;;;;5.07;63.31;101061.19;5093217;27;45466;-70
2021/12/03 01:31:10;;;;;;;;;22.00;20.00;;;;;5.11;62.54;101057.97;5093872;27;45726;-69
2021/12/03 01:33:36;;;;;;;;;22.25;21.00;;;;;5.15;63.09;101052.22;5092924;27;46847;-71
2021/12/03 01:36:02;;;;;;;;;28.25;22.00;;;;;5.16;63.33;101053.91;5092857;27;45714;-70
2021/12/03 01:38:28;;;;;;;;;24.75;22.75;;;;;5.22;63.11;101058.69;5094718;27;45714;-70
2021/12/03 01:40:53;;;;;;;;;22.00;19.50;;;;;5.25;62.91;101058.34;5094140;27;45461;-69
2021/12/03 01:43:24;;;;;;;;;25.75;19.00;;;;;5.27;63.24;101067.22;5110611;27;47651;-71
2021/12/03 01:45:53;;;;;;;;;28.50;23.00;;;;;5.28;62.77;101058.91;5094049;27;45577;-70
2021/12/03 01:48:19;;;;;;;;;24.75;21.50;;;;;5.32;62.94;101053.97;5088356;27;45515;-71
2021/12/03 01:50:46;;;;;;;;;27.50;21.00;;;;;5.34;62.25;101067.41;5082844;27;45319;-69
2021/12/03 01:53:14;;;;;;;;;21.50;19.75;;;;;5.36;62.54;101076.22;5093505;27;45605;-70
2021/12/03 01:55:41;;;;;;;;;24.00;22.25;;;;;5.36;62.50;101077.09;5093389;27;45375;-69
2021/12/03 01:58:07;;;;;;;;;23.75;21.50;;;;;5.36;62.02;101068.94;5093628;27;45626;-69
2021/12/03 02:00:40;;;;;;;;;23.25;22.00;;;;;5.37;62.68;101075.22;5092324;27;46185;-71
2021/12/03 02:03:08;;;;;;;;;24.00;20.00;;;;;5.36;62.39;101066.22;5093326;27;46914;-70
2021/12/03 02:05:35;;;;;;;;;26.00;24.50;;;;;5.40;62.05;101073.00;5093726;27;45526;-69
2021/12/03 02:08:00;;;;;;;;;22.50;21.50;;;;;5.41;61.63;101063.84;5092229;27;45380;-70
2021/12/03 02:10:26;;;;;;;;;23.75;20.00;;;;;5.42;61.81;101073.72;5092917;27;45333;-69
2021/12/03 02:12:52;;;;;;;;;23.50;20.25;;;;;5.42;62.27;101073.72;5091755;27;46169;-69
2021/12/03 02:15:18;;;;;;;;;20.25;18.25;;;;;5.42;61.78;101068.25;5093850;27;45838;-70
2021/12/03 02:17:43;;;;;;;;;19.25;16.00;;;;;5.44;61.80;101068.09;5093813;27;45778;-71
2021/12/03 02:20:11;;;;;;;;;19.50;19.00;;;;;5.43;61.82;101075.41;5093310;27;45533;-69
2021/12/03 02:22:38;;;;;;;;;27.00;20.25;;;;;5.44;61.41;101063.50;5093240;27;46824;-71
2021/12/03 02:25:07;;;;;;;;;21.75;19.25;;;;;5.47;62.25;101059.59;5093474;27;45737;-70
2021/12/03 02:27:32;;;;;;;;;24.50;17.00;;;;;5.46;61.92;101071.50;5093222;27;45308;-73
2021/12/03 02:29:58;;;;;;;;;25.67;17.00;;;;;5.47;61.32;101074.03;5092729;27;45371;-72
2021/12/03 02:32:23;;;;;;;;;20.50;16.50;;;;;5.52;61.97;101069.97;5085958;27;46270;-72
2021/12/03 02:34:49;;;;;;;;;20.25;17.00;;;;;5.54;61.95;101066.06;5092752;27;45876;-71
2021/12/03 02:37:14;;;;;;;;;23.25;17.25;;;;;5.57;61.33;101059.44;5093105;27;45624;-72
2021/12/03 02:39:40;;;;;;;;;18.00;16.50;;;;;5.59;61.37;101060.13;5092090;27;45501;-71
2021/12/03 02:42:05;;;;;;;;;21.50;17.50;;;;;5.62;61.56;101070.66;5091885;27;45604;-71
2021/12/03 02:44:31;;;;;;;;;20.25;15.75;;;;;5.63;61.46;101062.34;5091567;27;45407;-70
2021/12/03 02:46:56;;;;;;;;;18.33;15.67;;;;;5.67;60.91;101057.41;5096326;27;45706;-70
2021/12/03 02:49:22;;;;;;;;;19.75;18.00;;;;;5.71;61.43;101052.50;5101353;27;45850;-71
2021/12/03 02:51:47;;;;;;;;;18.00;15.00;;;;;5.73;61.41;101045.84;5096352;27;45728;-70
2021/12/03 02:54:13;;;;;;;;;19.25;15.75;;;;;5.76;60.93;101034.63;5096333;27;45430;-71
2021/12/03 02:56:38;;;;;;;;;17.00;16.00;;;;;5.81;60.93;101034.97;5096415;27;46126;-71
2021/12/03 02:59:04;;;;;;;;;21.25;15.25;;;;;5.84;61.11;101026.44;5096833;27;45739;-71
2021/12/03 03:01:31;;;;;;;;;22.50;17.25;;;;;5.90;60.83;101024.94;5096415;27;45444;-71
2021/12/03 03:03:56;;;;;;;;;18.75;15.75;;;;;5.93;60.66;101023.75;5096688;27;45343;-70
2021/12/03 03:06:22;;;;;;;;;15.50;15.50;;;;;5.94;60.69;101000.91;5096750;27;45362;-71
2021/12/03 03:08:48;;;;;;;;;16.00;13.67;;;;;5.94;60.92;101009.97;5096887;27;45925;-71
2021/12/03 03:11:16;;;;;;;;;12.67;12.33;;;;;6.01;60.32;101018.31;5096916;27;45892;-71
2021/12/03 03:13:42;;;;;;;;;13.67;11.67;;;;;6.04;60.44;101014.41;5096926;27;45446;-70
2021/12/03 03:16:08;;;;;;;;;13.33;11.33;;;;;6.04;60.35;101006.22;5096657;27;45777;-70
2021/12/03 03:18:34;;;;;;;;;11.00;10.00;;;;;6.07;59.70;101004.00;5096166;27;45764;-71
2021/12/03 03:21:02;;;;;;;;;15.33;9.67;;;;;6.09;60.10;101001.97;5077720;27;47319;-70
2021/12/03 03:23:27;;;;;;;;;13.00;10.00;;;;;6.10;60.01;101000.09;5095417;27;45823;-70
2021/12/03 03:25:53;;;;;;;;;11.00;10.00;;;;;6.14;59.67;101010.47;5095424;27;45367;-71
2021/12/03 03:28:20;;;;;;;;;10.00;9.00;;;;;6.15;59.61;101006.72;5095504;27;45312;-71
2021/12/03 03:30:47;;;;;;;;;8.33;8.00;;;;;6.16;59.54;101008.41;5095396;27;46175;-70
2021/12/03 03:33:16;;;;;;;;;9.33;9.00;;;;;6.18;60.18;101008.22;5095887;27;45777;-70
2021/12/03 03:35:42;;;;;;;;;10.33;7.67;;;;;6.22;59.10;101006.84;5096310;27;45648;-71
2021/12/03 03:38:08;;;;;;;;;9.00;7.75;;;;;6.25;59.61;101005.66;5095847;27;45916;-72
2021/12/03 03:40:35;;;;;;;;;9.00;8.33;;;;;6.25;59.71;101013.84;5095054;27;45489;-70
2021/12/03 03:43:02;;;;;;;;;8.00;6.33;;;;;6.27;59.64;101014.50;5094923;27;45721;-70
2021/12/03 03:45:29;;;;;;;;;8.00;6.67;;;;;6.28;58.76;101010.75;5095861;27;45710;-71
2021/12/03 03:47:55;;;;;;;;;10.00;9.00;;;;;6.30;58.79;101015.03;5095825;27;45308;-72
2021/12/03 03:50:22;;;;;;;;;8.67;8.67;;;;;6.30;58.64;101016.88;5096045;27;46560;-73
2021/12/03 03:52:51;;;;;;;;;13.67;10.00;;;;;6.30;59.05;101009.56;5095600;27;45293;-71
2021/12/03 03:55:17;;;;;;;;;8.33;8.00;;;;;6.29;59.03;101015.19;5093440;27;45897;-73
2021/12/03 03:57:43;;;;;;;;;13.00;11.00;;;;;6.27;58.92;101009.06;5093477;27;45376;-73
2021/12/03 04:00:13;;;;;;;;;13.67;11.00;;;;;6.27;58.61;101000.88;5083777;27;46352;-69
2021/12/03 04:02:39;;;;;;;;;11.00;9.00;;;;;6.26;58.76;101000.06;5073056;27;45645;-66
2021/12/03 04:05:05;;;;;;;;;9.67;9.67;;;;;6.26;59.18;101004.66;5073613;28;45546;-69
2021/12/03 04:07:31;;;;;;;;;6.67;6.67;;;;;6.25;59.14;101003.78;5074493;28;45637;-69
2021/12/03 04:09:56;;;;;;;;;9.33;7.33;;;;;6.25;58.68;101002.94;5087799;27;46175;-72
2021/12/03 04:12:21;;;;;;;;;10.33;9.00;;;;;6.25;58.95;101000.22;5093963;27;45354;-69
2021/12/03 04:14:47;;;;;;;;;11.00;6.33;;;;;6.22;59.10;100985.06;5095631;27;45667;-71
2021/12/03 04:17:12;;;;;;;;;9.33;8.00;;;;;6.18;59.23;100981.84;5094937;27;45444;-71
2021/12/03 04:19:38;;;;;;;;;11.33;7.67;;;;;6.18;58.89;100983.72;5095463;27;45680;-73
2021/12/03 04:22:05;;;;;;;;;11.00;6.33;;;;;6.18;59.01;100983.72;5094037;27;45788;-72
2021/12/03 04:24:30;;;;;;;;;7.67;7.67;;;;;6.16;59.30;100986.63;5077731;27;45792;-72
2021/12/03 04:26:55;;;;;;;;;10.00;10.00;;;;;6.17;58.86;100996.50;5074377;27;45437;-72
2021/12/03 04:29:21;;;;;;;;;10.33;7.00;;;;;6.20;58.42;101003.47;5079059;27;46087;-72
2021/12/03 04:31:46;;;;;;;;;8.33;7.67;;;;;6.24;58.68;100995.78;5079364;27;45360;-71
2021/12/03 04:34:12;;;;;;;;;8.00;5.33;;;;;6.21;58.67;100977.91;5072660;27;45436;-70
2021/12/03 04:36:37;;;;;;;;;9.33;9.33;;;;;6.22;58.66;100970.63;5073401;27;45360;-70
2021/12/03 04:39:03;;;;;;;;;9.67;6.67;;;;;6.25;58.36;100984.72;5077216;27;45261;-70
2021/12/03 04:41:29;;;;;;;;;10.33;9.33;;;;;6.27;58.59;100987.28;5073686;27;45598;-72
2021/12/03 04:43:55;;;;;;;;;3.67;2.00;;;;;6.27;58.49;100984.53;5077612;27;45705;-71
2021/12/03 04:46:22;;;;;;;;;9.00;8.67;;;;;6.24;58.52;100979.44;5086667;27;45501;-72
2021/12/03 04:48:47;;;;;;;;;6.33;6.33;;;;;6.26;58.50;100983.72;5076118;27;45806;-71
2021/12/03 04:51:13;;;;;;;;;9.67;7.67;;;;;6.27;58.36;100981.81;5073375;27;45424;-71
2021/12/03 04:53:38;;;;;;;;;11.00;9.00;;;;;6.29;58.03;100986.06;5073822;27;45491;-72
2021/12/03 04:56:04;;;;;;;;;10.00;9.00;;;;;6.30;57.66;100986.91;5078995;27;45454;-72
2021/12/03 04:58:30;;;;;;;;;8.00;5.67;;;;;6.31;58.13;100985.91;5088789;27;45352;-73
2021/12/03 05:00:56;;;;;;;;;9.67;6.67;;;;;6.26;58.08;100971.97;5088431;27;45426;-71
2021/12/03 05:03:25;;;;;;;;;8.33;8.33;;;;;6.29;58.46;100985.25;5104353;27;45285;-73
2021/12/03 05:05:59;;;;;;;;;5.00;4.00;;;;;6.27;57.97;100971.78;5081269;27;46228;-72
2021/12/03 05:08:28;;;;;;;;;11.00;9.67;;;;;6.27;58.02;100966.34;5085736;27;46801;-74
2021/12/03 05:10:54;;;;;;;;;8.00;6.00;;;;;6.27;58.02;100962.75;5082989;27;45494;-74
2021/12/03 05:13:24;;;;;;;;;6.33;6.33;;;;;6.25;57.51;100959.38;5084988;27;45368;-76
2021/12/03 05:15:49;;;;;;;;;8.00;8.00;;;;;6.25;58.15;100948.47;5083524;27;45514;-72
2021/12/03 05:18:18;;;;;;;;;4.67;4.67;;;;;6.25;57.55;100940.31;5091426;27;45412;-72
2021/12/03 05:20:45;;;;;;;;;4.67;4.67;;;;;6.24;58.05;100944.03;5090771;27;45698;-72
2021/12/03 05:23:11;;;;;;;;;9.33;6.00;;;;;6.26;57.38;100937.41;5086526;27;45466;-72
2021/12/03 05:25:37;;;;;;;;;5.33;5.33;;;;;6.27;57.45;100932.78;5088456;27;45676;-72
2021/12/03 05:28:03;;;;;;;;;0.00;0.00;;;;;6.27;57.79;100932.78;5085062;27;45829;-72
2021/12/03 05:30:29;;;;;;;;;8.00;5.00;;;;;6.21;57.61;100918.00;5092773;27;45669;-73
2021/12/03 05:32:55;;;;;;;;;4.00;4.00;;;;;6.32;57.37;100935.84;5084852;27;45534;-72
2021/12/03 05:35:21;;;;;;;;;6.33;4.00;;;;;6.34;57.60;100933.78;5087027;27;45372;-73
2021/12/03 05:37:46;;;;;;;;;6.67;6.00;;;;;6.36;57.39;100931.72;5083989;27;45671;-71
2021/12/03 05:40:13;;;;;;;;;5.00;4.00;;;;;6.37;57.41;100928.00;5082785;27;45487;-71
2021/12/03 05:42:39;;;;;;;;;8.67;4.00;;;;;6.39;57.46;100936.81;5086942;27;45836;-71
2021/12/03 05:45:09;;;;;;;;;7.33;3.67;;;;;6.44;57.16;100928.16;5087449;27;45684;-72
2021/12/03 05:47:34;;;;;;;;;5.67;4.67;;;;;6.48;57.74;100924.88;5087985;27;47066;-71
2021/12/03 05:50:01;;;;;;;;;7.00;5.33;;;;;6.47;57.39;100917.72;5090726;27;45774;-71
2021/12/03 05:52:26;;;;;;;;;4.67;3.33;;;;;6.50;56.57;100925.56;5086432;27;45455;-73
2021/12/03 05:54:52;;;;;;;;;7.33;4.67;;;;;6.54;57.60;100910.56;5085245;27;45461;-72
2021/12/03 05:57:17;;;;;;;;;5.33;5.33;;;;;6.58;57.36;100905.59;5083742;27;46370;-70
2021/12/03 05:59:43;;;;;;;;;4.00;4.00;;;;;6.60;56.85;100895.38;5090210;27;45689;-72
2021/12/03 06:02:08;;;;;;;;;5.00;3.67;;;;;6.66;57.16;100893.78;5090060;27;45698;-72
2021/12/03 06:04:34;;;;;;;;;5.00;4.00;;;;;6.65;56.32;100881.22;5093088;27;45522;-71
2021/12/03 06:07:00;;;;;;;;;5.33;4.00;;;;;6.70;56.34;100886.94;5092455;27;47110;-72
2021/12/03 06:09:25;;;;;;;;;2.00;2.00;;;;;6.69;56.45;100883.38;5092399;27;45736;-72
2021/12/03 06:11:51;;;;;;;;;8.00;5.00;;;;;6.73;56.43;100897.50;5109363;27;45785;-71
2021/12/03 06:14:16;;;;;;;;;9.00;6.00;;;;;6.75;56.48;100897.31;5105710;27;46948;-73
2021/12/03 06:16:42;;;;;;;;;2.67;2.67;;;;;6.80;56.96;100901.19;5072815;27;45343;-71
2021/12/03 06:19:07;;;;;;;;;8.33;5.00;;;;;6.82;56.02;100892.84;5071434;28;45347;-71
2021/12/03 06:21:33;;;;;;;;;4.00;4.00;;;;;6.85;56.01;100904.22;5072666;28;45347;-71
2021/12/03 06:23:58;;;;;;;;;5.33;3.00;;;;;6.86;56.06;100905.94;5073247;27;45338;-73
2021/12/03 06:26:23;;;;;;;;;5.00;5.00;;;;;6.88;55.65;100903.03;5077449;27;46436;-67
2021/12/03 06:28:49;;;;;;;;;3.00;3.00;;;;;6.90;56.01;100906.41;5084068;27;45338;-70
2021/12/03 06:31:14;;;;;;;;;3.00;3.00;;;;;6.94;56.11;100906.91;5072173;27;45708;-71
2021/12/03 06:33:40;;;;;;;;;5.00;3.67;;;;;6.83;56.34;100889.09;5071155;27;45767;-70
2021/12/03 06:36:06;;;;;;;;;2.67;2.00;;;;;6.97;55.87;100892.91;5071184;27;45696;-70
2021/12/03 06:38:31;;;;;;;;;4.00;3.00;;;;;6.99;55.80;100904.47;5071007;28;45705;-70
2021/12/03 06:40:57;;;;;;;;;5.00;4.00;;;;;7.02;55.93;100902.25;5089478;27;45395;-70
2021/12/03 06:43:23;;;;;;;;;4.67;4.67;;;;;7.06;56.23;100908.16;5093129;27;45489;-75
2021/12/03 06:45:48;;;;;;;;;7.00;4.33;;;;;7.08;56.07;100903.41;5091779;27;46701;-66
2021/12/03 06:48:14;;;;;;;;;4.67;4.67;;;;;7.09;55.78;100907.81;5093078;27;45446;-71
2021/12/03 06:50:39;;;;;;;;;5.33;4.67;;;;;7.06;55.50;100905.44;5093115;27;45395;-68
2021/12/03 06:53:14;;;;;;;;;4.00;4.00;;;;;7.07;55.92;100907.16;5080242;27;45580;-70
2021/12/03 06:55:48;;;;;;;;;3.00;3.00;;;;;7.07;55.16;100897.09;5092313;27;45589;-68
2021/12/03 06:58:19;;;;;;;;;6.00;4.00;;;;;7.08;55.96;100906.13;5082115;27;45572;-68
2021/12/03 07:00:47;;;;;;;;;4.00;4.00;;;;;7.07;55.82;100899.81;5080398;27;45776;-68
2021/12/03 07:03:13;;;;;;;;;6.00;3.00;;;;;7.11;55.44;100894.00;5071001;28;45955;-67
2021/12/03 07:05:38;;;;;;;;;2.67;2.00;;;;;7.13;55.17;100895.50;5071911;28;45500;-68
2021/12/03 07:08:05;;;;;;;;;4.00;3.00;;;;;7.13;55.18;100884.59;5071788;28;45625;-67
2021/12/03 07:11:18;;;;;;;;;5.00;3.33;;;;;7.13;54.46;100889.22;5212082;22;45662;-70
2021/12/03 07:17:08;;;;;;;;;5.00;3.00;;;;;7.20;54.93;100880.13;5005390;28;45959;-72
2021/12/03 07:19:34;;;;;;;;;4.00;4.00;;;;;7.11;55.31;100864.84;5001190;28;45675;-69
2021/12/03 07:21:59;;;;;;;;;3.00;3.00;;;;;7.24;55.23;100875.13;5008953;28;45803;-71
2021/12/03 07:24:25;;;;;;;;;2.67;2.67;;;;;7.19;55.37;100856.59;5033366;28;45782;-77
2021/12/03 07:26:51;;;;;;;;;6.67;3.00;;;;;7.29;55.16;100869.97;5054005;28;46298;-78
2021/12/03 07:29:17;;;;;;;;;2.33;2.00;;;;;7.29;54.82;100878.16;5053739;28;45479;-77
2021/12/03 07:31:42;;;;;;;;;4.00;2.33;;;;;7.32;55.58;100882.38;5038698;28;45938;-78
2021/12/03 07:34:10;;;;;;;;;2.00;2.00;;;;;7.22;54.63;100858.94;5038519;28;45965;-78
2021/12/03 07:36:36;;;;;;;;;4.33;4.33;;;;;7.30;55.00;100870.81;5055543;28;45655;-76
2021/12/03 07:39:01;;;;;;;;;4.00;4.00;;;;;7.31;54.36;100870.63;5053110;28;45398;-78
2021/12/03 07:41:27;;;;;;;;;4.00;4.00;;;;;7.28;54.24;100868.28;5048483;28;45845;-77
2021/12/03 07:43:53;;;;;;;;;3.00;3.00;;;;;7.26;55.42;100864.91;5044452;28;46680;-84
2021/12/03 07:46:19;;;;;;;;;2.67;2.67;;;;;7.25;54.23;100877.66;5065641;28;46284;-83
2021/12/03 07:48:47;;;;;;;;;5.00;4.00;;;;;7.28;54.49;100868.28;5060655;28;45548;-76
2021/12/03 07:51:16;;;;;;;;;3.00;3.00;;;;;7.34;55.35;100875.72;5049292;28;45793;-77
2021/12/03 07:53:43;;;;;;;;;5.67;2.00;;;;;7.38;55.05;100876.19;5060214;28;45531;-78
2021/12/03 07:56:09;;;;;;;;;3.00;2.00;;;;;7.39;55.25;100873.28;5060419;28;45762;-77
2021/12/03 07:58:35;;;;;;;;;4.33;2.33;;;;;7.41;54.75;100871.22;5045699;28;45601;-78
2021/12/03 08:01:01;;;;;;;;;4.00;2.67;;;;;7.43;54.41;100866.41;5040450;28;45742;-79
2021/12/03 08:03:26;;;;;;;;;3.67;2.00;;;;;7.52;54.53;100872.66;5051515;28;45824;-78
2021/12/03 08:05:52;;;;;;;;;2.00;2.00;;;;;7.60;54.30;100878.03;5049455;28;46286;-78
2021/12/03 08:08:26;;;;;;;;;3.00;3.00;;;;;7.56;53.29;100873.97;5058858;28;45444;-77
2021/12/03 08:10:52;;;;;;;;;5.33;2.67;;;;;7.56;53.63;100864.94;5055330;28;45635;-78
2021/12/03 08:13:18;;;;;;;;;3.00;3.00;;;;;7.64;54.23;100874.94;5056116;28;45779;-78
2021/12/03 08:15:44;;;;;;;;;4.00;4.00;;;;;7.64;53.44;100859.41;5042882;28;46329;-77
2021/12/03 08:18:10;;;;;;;;;5.67;3.00;;;;;7.70;53.76;100863.28;5055429;28;45497;-77
2021/12/03 08:20:35;;;;;;;;;3.00;3.00;;;;;7.78;53.54;100857.72;5056635;28;45846;-79
2021/12/03 08:23:01;;;;;;;;;1.67;1.67;;;;;7.80;52.46;100858.38;5057180;28;45735;-76
2021/12/03 08:25:28;;;;;;;;;3.00;3.00;;;;;7.77;52.43;100859.59;5054326;28;46223;-77
2021/12/03 08:27:54;;;;;;;;;2.67;2.67;;;;;7.82;52.74;100869.97;5055842;28;45386;-77
2021/12/03 08:30:20;;;;;;;;;5.33;3.00;;;;;7.85;52.76;100863.28;5056966;28;45477;-78
2021/12/03 08:32:49;;;;;;;;;2.33;2.00;;;;;7.87;52.67;100861.19;5039287;28;46475;-77
2021/12/03 08:35:14;;;;;;;;;5.00;3.00;;;;;7.96;52.89;100860.06;5054034;28;45545;-77
2021/12/03 08:37:44;;;;;;;;;2.00;2.00;;;;;8.00;52.71;100866.00;5038031;28;45447;-79
2021/12/03 08:40:11;;;;;;;;;3.67;3.00;;;;;8.06;52.55;100867.97;5055025;28;45827;-78
2021/12/03 08:42:36;;;;;;;;;3.00;3.00;;;;;8.04;51.78;100870.91;5056086;28;45804;-79
2021/12/03 08:45:04;;;;;;;;;4.00;4.00;;;;;8.15;51.76;100868.72;5033975;28;47100;-77
2021/12/03 08:47:30;;;;;;;;;4.67;3.33;;;;;8.18;51.63;100866.44;5053988;28;45904;-77
2021/12/03 08:49:56;;;;;;;;;8.67;2.00;;;;;8.16;52.08;100874.00;5041819;28;45428;-78
2021/12/03 08:57:30;;;;;;;;;4.00;4.00;;;;;8.21;51.29;100877.00;5046624;28;45843;-79
2021/12/03 08:59:57;;;;;;;;;3.33;2.33;;;;;8.18;51.66;100871.91;5035657;28;45578;-78
2021/12/03 09:02:22;;;;;;;;;3.67;1.33;;;;;8.21;52.04;100860.59;5054180;28;45521;-78
2021/12/03 09:04:49;;;;;;;;;4.67;3.00;;;;;8.22;51.64;100872.38;5037532;28;45907;-80
2021/12/03 09:07:15;;;;;;;;;7.00;3.00;;;;;8.22;51.86;100867.78;5043826;28;46031;-78
2021/12/03 09:09:40;;;;;;;;;3.00;3.00;;;;;8.25;51.62;100877.50;5038119;28;45492;-74
2021/12/03 09:12:06;;;;;;;;;4.00;4.00;;;;;8.27;51.14;100869.94;5034827;28;46004;-78
2021/12/03 09:14:49;;;;;;;;;4.00;4.00;;;;;8.24;51.04;100868.41;5039545;28;45533;-80
2021/12/03 09:20:11;;;;;;;;;3.33;3.00;;;;;8.28;51.49;100858.81;5069834;28;45392;-78
2021/12/03 09:22:41;;;;;;;;;4.33;4.33;;;;;8.26;51.81;100847.25;5075565;28;45868;-78
2021/12/03 09:25:10;;;;;;;;;4.67;4.00;;;;;8.29;52.19;100844.13;5047415;28;46134;-79
2021/12/03 09:27:36;;;;;;;;;4.00;4.00;;;;;8.32;52.04;100845.59;5042654;28;45882;-78
2021/12/03 09:30:06;;;;;;;;;4.33;4.00;;;;;8.29;51.18;100835.94;5051888;28;45731;-78
2021/12/03 09:32:32;;;;;;;;;4.67;4.00;;;;;8.28;52.04;100831.50;5015324;28;45988;-78
2021/12/03 09:34:59;;;;;;;;;9.00;5.00;;;;;8.29;52.59;100833.19;5015725;28;45743;-77
2021/12/03 09:37:24;;;;;;;;;7.00;5.67;;;;;8.30;52.42;100821.19;5034314;28;45793;-78
2021/12/03 09:39:50;;;;;;;;;6.00;5.00;;;;;8.34;52.85;100810.75;5035052;28;45310;-79
2021/12/03 09:42:21;;;;;;;;;4.00;4.00;;;;;8.33;52.79;100819.97;5036615;28;45758;-77
2021/12/03 09:44:51;;;;;;;;;5.00;5.00;;;;;8.34;53.06;100820.81;5036266;28;45716;-77
2021/12/03 09:47:18;;;;;;;;;5.67;5.33;;;;;8.38;52.75;100817.50;5030426;28;45493;-78
2021/12/03 09:49:54;;;;;;;;;5.00;5.00;;;;;8.38;53.01;100816.66;5037606;28;45801;-77
2021/12/03 09:52:37;;;;;;;;;3.67;3.00;;;;;8.30;53.50;100815.75;5025091;28;46412;-80
2021/12/03 09:55:21;;;;;;;;;6.00;3.00;;;;;8.36;53.97;100807.81;5034709;28;45567;-77
2021/12/03 10:00:31;;;;;;;;;4.00;2.67;;;;;8.43;53.49;100819.69;5059120;28;45474;-79
2021/12/03 10:03:13;;;;;;;;;3.67;3.67;;;;;8.37;53.61;100821.28;5055951;28;45391;-77
2021/12/03 10:12:12;;;;;;;;;6.67;4.00;;;;;8.25;55.58;100811.91;5047321;28;45826;-75
2021/12/03 10:14:58;;;;;;;;;5.33;5.00;;;;;8.13;56.02;100806.09;5034979;28;45597;-80
2021/12/03 10:38:50;;;;;;;;;5.67;4.33;;;;;7.80;58.29;100749.19;5038661;28;46044;-73
2021/12/03 10:47:23;;;;;;;;;4.67;4.67;;;;;7.78;59.08;100745.78;4969335;28;45718;-80
2021/12/03 10:51:08;;;;;;;;;6.00;5.00;;;;;7.78;59.42;100735.72;4972014;28;46178;-74
2021/12/03 11:02:09;;;;;;;;;5.33;5.33;;;;;7.48;60.54;100718.50;5036675;28;45640;-75
2021/12/03 11:19:39;;;;;;;;;3.00;3.00;;;;;7.13;61.22;100679.22;5025334;28;45534;-79
2021/12/03 11:29:46;;;;;;;;;2.33;2.00;;;;;6.93;62.36;100673.47;5048929;28;45805;-75
2021/12/03 12:15:30;;;;;;;;;3.67;2.33;;;;;6.57;64.54;100566.00;5048608;28;45906;-75
2021/12/03 13:25:32;;;;;;;;;2.33;2.33;;;;;6.85;65.09;100448.97;5038550;28;45638;-76
2021/12/03 13:59:19;;;;;;;;;1.00;1.00;;;;;6.72;65.61;100384.28;5054264;28;45493;-76
2021/12/03 14:01:46;;;;;;;;;3.00;2.00;;;;;6.71;66.09;100389.94;5049092;28;46014;-76
2021/12/03 14:52:12;;;;;;;;;3.00;3.00;;;;;7.08;65.55;100322.56;5049495;28;45540;-77
2021/12/03 14:54:58;;;;;;;;;1.00;1.00;;;;;7.11;65.93;100319.44;5035241;28;46374;-80
2021/12/03 14:57:56;;;;;;;;;3.67;3.67;;;;;7.12;65.50;100309.38;5055186;28;45433;-81
2021/12/03 15:00:33;;;;;;;;;4.67;3.33;;;;;7.16;66.15;100295.16;5060340;28;45937;-81
2021/12/03 15:06:28;;;;;;;;;3.00;2.00;;;;;7.05;65.68;100279.31;5051752;28;45887;-80
2021/12/03 15:08:34;;;;;;;;;2.00;1.00;;;;;7.14;66.02;100288.19;5051689;28;45887;-77
2021/12/03 15:30:19;;;;;;;;;2.67;2.67;;;;;7.20;66.64;100284.69;5050058;28;45836;-76
2021/12/03 15:32:27;;;;;;;;;4.00;3.67;;;;;7.22;66.74;100278.00;5044794;28;45691;-76
2021/12/03 15:37:42;;;;;;;;;1.67;1.00;;;;;7.26;66.98;100264.81;5058587;28;45768;-82
2021/12/03 16:04:57;;;;;;;;;1.67;1.67;;;;;7.33;66.53;100232.13;5036293;28;45973;-74
2021/12/03 16:07:59;;;;;;;;;2.00;1.00;;;;;7.34;67.07;100229.19;5035614;28;45672;-73
2021/12/03 16:18:34;;;;;;;;;1.67;1.33;;;;;7.31;66.67;100190.56;5037431;28;45769;-75
2021/12/03 16:26:15;;;;;;;;;1.00;1.00;;;;;7.28;66.81;100166.44;5037163;28;45562;-75
2021/12/03 16:53:29;;;;;;;;;2.00;2.00;;;;;7.25;67.74;100130.31;5053096;28;45474;-81
2021/12/03 16:56:01;;;;;;;;;1.00;1.00;;;;;7.27;67.54;100119.19;5053338;28;45427;-82
2021/12/03 16:58:28;;;;;;;;;2.00;2.00;;;;;7.31;67.55;100111.47;5036222;28;45500;-80
2021/12/03 17:01:06;;;;;;;;;1.33;1.33;;;;;7.30;67.77;100096.13;5050216;28;45368;-81
2021/12/03 17:03:57;;;;;;;;;2.00;2.00;;;;;7.29;67.36;100102.63;5027640;28;45683;-80
2021/12/03 17:59:43;;;;;;;;;10.33;8.33;;;;;7.20;73.77;100023.72;5048917;28;44970;-82
2021/12/03 18:04:54;;;;;;;;;10.33;7.00;;;;;7.12;73.09;100013.00;5059305;28;45516;-81
2021/12/03 18:12:51;;;;;;;;;10.33;10.00;;;;;7.16;73.83;99994.34;5055988;28;45631;-79
2021/12/03 18:18:21;;;;;;;;;9.00;9.00;;;;;7.14;73.30;99972.75;5054155;28;45918;-78
2021/12/03 18:51:05;;;;;;;;;13.00;13.00;;;;;7.35;74.52;99927.25;5041824;28;45493;-80
2021/12/03 18:56:01;;;;;;;;;13.00;12.00;;;;;7.37;73.74;99916.97;5042991;28;45427;-81
2021/12/03 18:58:28;;;;;;;;;11.00;11.00;;;;;7.33;73.95;99910.25;5034000;28;46868;-80
2021/12/03 19:00:58;;;;;;;;;13.00;12.00;;;;;7.45;74.53;99914.03;5037664;28;45467;-80
2021/12/03 19:03:33;;;;;;;;;15.00;15.00;;;;;7.46;74.74;99910.25;5043399;28;45376;-81